sensor_id;sensor_type;location;lat;lon;timestamp;pressure;altitude;pressure_sealevel;temperature;humidity
55271;BME280;41132;47.162;9.470;2023-04-09T00:01:57;97061.72;;;6.01;100.00
55271;BME280;41132;47.162;9.470;2023-04-09T00:04:22;97037.81;;;5.83;100.00
55271;BME280;41132;47.162;9.470;2023-04-09T00:06:48;97058.53;;;5.84;100.00
55271;BME280;41132;47.162;9.470;2023-04-09T00:09:13;97055.56;;;6.02;100.00
55271;BME280;41132;47.162;9.470;2023-04-09T00:11:38;97048.31;;;5.94;100.00
55271;BME280;41132;47.162;9.470;2023-04-09T00:14:04;97050.13;;;6.05;100.00
55271;BME280;41132;47.162;9.470;2023-04-09T00:16:30;97033.75;;;6.03;100.00
55271;BME280;41132;47.162;9.470;2023-04-09T00:18:55;97049.97;;;5.95;100.00
55271;BME280;41132;47.162;9.470;2023-04-09T00:21:20;97033.31;;;5.85;100.00
55271;BME280;41132;47.162;9.470;2023-04-09T00:23:46;97042.34;;;5.92;100.00
55271;BME280;41132;47.162;9.470;2023-04-09T00:26:11;97037.03;;;5.94;100.00
55271;BME280;41132;47.162;9.470;2023-04-09T00:28:37;97038.50;;;5.98;100.00
55271;BME280;41132;47.162;9.470;2023-04-09T00:31:02;97041.75;;;5.89;100.00
55271;BME280;41132;47.162;9.470;2023-04-09T00:33:27;97027.25;;;5.73;100.00
55271;BME280;41132;47.162;9.470;2023-04-09T00:35:53;97047.47;;;5.70;100.00
55271;BME280;41132;47.162;9.470;2023-04-09T00:38:18;97040.31;;;5.84;100.00
55271;BME280;41132;47.162;9.470;2023-04-09T00:40:47;97041.50;;;5.92;100.00
55271;BME280;41132;47.162;9.470;2023-04-09T00:43:13;97015.38;;;5.69;100.00
55271;BME280;41132;47.162;9.470;2023-04-09T00:45:38;97041.00;;;5.75;100.00
55271;BME280;41132;47.162;9.470;2023-04-09T00:48:04;97040.94;;;5.64;100.00
55271;BME280;41132;47.162;9.470;2023-04-09T00:50:30;97042.06;;;5.73;100.00
55271;BME280;41132;47.162;9.470;2023-04-09T00:52:55;97030.94;;;5.82;100.00
55271;BME280;41132;47.162;9.470;2023-04-09T00:55:21;97034.72;;;5.78;100.00
55271;BME280;41132;47.162;9.470;2023-04-09T00:57:46;97031.16;;;5.79;100.00
55271;BME280;41132;47.162;9.470;2023-04-09T01:00:12;97019.38;;;5.86;100.00
55271;BME280;41132;47.162;9.470;2023-04-09T01:02:38;97019.38;;;5.62;100.00
55271;BME280;41132;47.162;9.470;2023-04-09T01:05:04;97023.19;;;5.69;100.00
55271;BME280;41132;47.162;9.470;2023-04-09T01:15:04;97018.66;;;5.60;100.00
55271;BME280;41132;47.162;9.470;2023-04-09T01:17:41;97021.94;;;5.51;100.00
55271;BME280;41132;47.162;9.470;2023-04-09T01:30:47;97021.22;;;5.25;100.00
55271;BME280;41132;47.162;9.470;2023-04-09T01:33:14;97024.09;;;5.33;100.00
55271;BME280;41132;47.162;9.470;2023-04-09T01:35:42;97008.03;;;5.39;100.00
55271;BME280;41132;47.162;9.470;2023-04-09T01:38:10;97013.25;;;5.39;100.00
55271;BME280;41132;47.162;9.470;2023-04-09T01:40:37;97017.31;;;5.43;100.00
55271;BME280;41132;47.162;9.470;2023-04-09T01:43:02;97018.13;;;5.43;100.00
55271;BME280;41132;47.162;9.470;2023-04-09T01:45:28;97014.03;;;5.52;100.00
55271;BME280;41132;47.162;9.470;2023-04-09T01:47:54;97015.97;;;5.61;100.00
55271;BME280;41132;47.162;9.470;2023-04-09T01:50:20;97009.69;;;5.64;100.00
55271;BME280;41132;47.162;9.470;2023-04-09T01:52:46;97015.28;;;5.71;100.00
55271;BME280;41132;47.162;9.470;2023-04-09T01:55:11;97011.97;;;5.69;100.00
55271;BME280;41132;47.162;9.470;2023-04-09T01:57:37;97000.34;;;5.61;100.00
55271;BME280;41132;47.162;9.470;2023-04-09T02:00:03;97025.94;;;5.79;100.00
55271;BME280;41132;47.162;9.470;2023-04-09T02:02:37;97023.63;;;5.87;100.00
55271;BME280;41132;47.162;9.470;2023-04-09T02:05:08;97020.16;;;5.75;100.00
55271;BME280;41132;47.162;9.470;2023-04-09T02:07:43;97019.31;;;5.75;100.00
55271;BME280;41132;47.162;9.470;2023-04-09T02:10:09;97028.84;;;5.87;100.00
55271;BME280;41132;47.162;9.470;2023-04-09T02:12:37;97035.19;;;5.83;100.00
55271;BME280;41132;47.162;9.470;2023-04-09T02:15:05;97020.97;;;5.76;100.00
55271;BME280;41132;47.162;9.470;2023-04-09T02:17:31;97026.31;;;5.85;100.00
55271;BME280;41132;47.162;9.470;2023-04-09T02:19:57;97025.88;;;5.92;100.00
55271;BME280;41132;47.162;9.470;2023-04-09T02:22:22;97029.38;;;6.03;100.00
55271;BME280;41132;47.162;9.470;2023-04-09T02:24:47;97024.66;;;5.97;100.00
55271;BME280;41132;47.162;9.470;2023-04-09T02:27:13;97022.41;;;5.80;100.00
55271;BME280;41132;47.162;9.470;2023-04-09T02:29:39;97017.94;;;5.82;100.00
55271;BME280;41132;47.162;9.470;2023-04-09T02:32:05;97021.63;;;5.91;100.00
55271;BME280;41132;47.162;9.470;2023-04-09T02:34:31;97014.16;;;5.86;100.00
55271;BME280;41132;47.162;9.470;2023-04-09T02:36:56;97025.84;;;5.80;100.00
55271;BME280;41132;47.162;9.470;2023-04-09T02:39:22;97002.84;;;5.74;100.00
55271;BME280;41132;47.162;9.470;2023-04-09T02:41:47;97016.81;;;5.73;100.00
55271;BME280;41132;47.162;9.470;2023-04-09T02:44:12;97023.28;;;5.92;100.00
55271;BME280;41132;47.162;9.470;2023-04-09T02:46:39;97019.75;;;5.93;100.00
55271;BME280;41132;47.162;9.470;2023-04-09T02:49:04;97022.06;;;5.84;100.00
55271;BME280;41132;47.162;9.470;2023-04-09T02:51:30;97016.63;;;5.88;100.00
55271;BME280;41132;47.162;9.470;2023-04-09T02:53:55;97013.06;;;5.77;100.00
55271;BME280;41132;47.162;9.470;2023-04-09T02:56:21;97011.50;;;5.75;100.00
55271;BME280;41132;47.162;9.470;2023-04-09T02:58:46;97012.53;;;5.96;100.00
55271;BME280;41132;47.162;9.470;2023-04-09T03:01:13;97016.63;;;6.12;100.00
55271;BME280;41132;47.162;9.470;2023-04-09T03:03:39;97009.16;;;6.07;100.00
55271;BME280;41132;47.162;9.470;2023-04-09T03:06:06;97003.84;;;5.84;100.00
55271;BME280;41132;47.162;9.470;2023-04-09T03:08:31;97008.78;;;6.00;100.00
55271;BME280;41132;47.162;9.470;2023-04-09T03:10:57;97007.22;;;5.98;100.00
55271;BME280;41132;47.162;9.470;2023-04-09T03:13:22;97003.84;;;5.84;100.00
55271;BME280;41132;47.162;9.470;2023-04-09T03:15:51;97008.66;;;5.78;100.00
55271;BME280;41132;47.162;9.470;2023-04-09T03:18:19;96999.94;;;5.90;100.00
55271;BME280;41132;47.162;9.470;2023-04-09T03:20:45;96996.13;;;5.83;100.00
55271;BME280;41132;47.162;9.470;2023-04-09T03:23:10;97010.59;;;5.87;100.00
55271;BME280;41132;47.162;9.470;2023-04-09T03:25:36;97002.53;;;5.90;100.00
55271;BME280;41132;47.162;9.470;2023-04-09T03:28:02;97000.84;;;6.02;100.00
55271;BME280;41132;47.162;9.470;2023-04-09T03:30:28;96998.59;;;5.97;100.00
55271;BME280;41132;47.162;9.470;2023-04-09T03:32:53;96991.16;;;5.80;100.00
55271;BME280;41132;47.162;9.470;2023-04-09T03:35:18;97000.84;;;5.78;100.00
55271;BME280;41132;47.162;9.470;2023-04-09T03:37:44;97005.00;;;5.80;100.00
55271;BME280;41132;47.162;9.470;2023-04-09T03:40:10;96999.41;;;5.74;100.00
55271;BME280;41132;47.162;9.470;2023-04-09T03:42:35;97000.59;;;5.70;100.00
55271;BME280;41132;47.162;9.470;2023-04-09T03:45:05;97005.78;;;5.70;100.00
55271;BME280;41132;47.162;9.470;2023-04-09T03:47:31;96998.19;;;5.91;100.00
55271;BME280;41132;47.162;9.470;2023-04-09T03:49:57;97002.50;;;6.03;100.00
55271;BME280;41132;47.162;9.470;2023-04-09T03:52:22;96996.22;;;6.05;100.00
55271;BME280;41132;47.162;9.470;2023-04-09T03:54:47;96997.28;;;6.03;100.00
55271;BME280;41132;47.162;9.470;2023-04-09T03:57:13;97005.63;;;5.84;100.00
55271;BME280;41132;47.162;9.470;2023-04-09T03:59:38;97009.84;;;5.74;100.00
55271;BME280;41132;47.162;9.470;2023-04-09T04:02:03;97009.88;;;5.85;100.00
55271;BME280;41132;47.162;9.470;2023-04-09T04:04:29;96995.97;;;5.97;100.00
55271;BME280;41132;47.162;9.470;2023-04-09T04:06:54;96997.56;;;5.87;100.00
55271;BME280;41132;47.162;9.470;2023-04-09T04:09:20;96999.72;;;5.93;100.00
55271;BME280;41132;47.162;9.470;2023-04-09T04:11:45;96993.19;;;5.88;100.00
55271;BME280;41132;47.162;9.470;2023-04-09T04:14:11;96993.53;;;5.83;100.00
55271;BME280;41132;47.162;9.470;2023-04-09T04:16:36;97005.69;;;5.95;100.00
55271;BME280;41132;47.162;9.470;2023-04-09T04:19:01;97005.00;;;6.04;100.00
55271;BME280;41132;47.162;9.470;2023-04-09T04:21:27;97014.22;;;5.97;100.00
55271;BME280;41132;47.162;9.470;2023-04-09T04:23:52;96996.31;;;5.93;100.00
55271;BME280;41132;47.162;9.470;2023-04-09T04:26:18;97012.75;;;5.93;100.00
55271;BME280;41132;47.162;9.470;2023-04-09T04:28:43;97010.91;;;5.71;100.00
55271;BME280;41132;47.162;9.470;2023-04-09T04:31:09;97008.41;;;5.70;100.00
55271;BME280;41132;47.162;9.470;2023-04-09T04:33:35;97017.75;;;5.61;100.00
55271;BME280;41132;47.162;9.470;2023-04-09T04:36:11;97018.91;;;5.57;100.00
55271;BME280;41132;47.162;9.470;2023-04-09T04:38:38;97017.03;;;5.59;100.00
55271;BME280;41132;47.162;9.470;2023-04-09T04:41:04;97004.44;;;5.53;100.00
55271;BME280;41132;47.162;9.470;2023-04-09T04:43:29;97013.41;;;5.73;100.00
55271;BME280;41132;47.162;9.470;2023-04-09T04:45:55;97022.41;;;5.80;100.00
55271;BME280;41132;47.162;9.470;2023-04-09T04:48:20;96997.78;;;5.73;100.00
55271;BME280;41132;47.162;9.470;2023-04-09T04:50:46;97027.72;;;6.02;100.00
55271;BME280;41132;47.162;9.470;2023-04-09T04:53:18;97011.56;;;5.86;100.00
55271;BME280;41132;47.162;9.470;2023-04-09T04:55:44;97026.53;;;5.95;100.00
55271;BME280;41132;47.162;9.470;2023-04-09T04:58:09;97024.00;;;5.94;100.00
55271;BME280;41132;47.162;9.470;2023-04-09T05:00:34;97029.22;;;5.94;100.00
55271;BME280;41132;47.162;9.470;2023-04-09T05:03:00;97020.91;;;5.89;100.00
55271;BME280;41132;47.162;9.470;2023-04-09T05:05:25;97014.03;;;5.88;100.00
55271;BME280;41132;47.162;9.470;2023-04-09T05:07:50;97029.38;;;6.03;100.00
55271;BME280;41132;47.162;9.470;2023-04-09T05:10:16;97028.09;;;5.85;100.00
55271;BME280;41132;47.162;9.470;2023-04-09T05:12:41;97023.84;;;5.84;100.00
55271;BME280;41132;47.162;9.470;2023-04-09T05:15:07;97015.81;;;5.63;100.00
55271;BME280;41132;47.162;9.470;2023-04-09T05:17:32;97027.34;;;5.72;100.00
55271;BME280;41132;47.162;9.470;2023-04-09T05:19:58;97029.56;;;5.89;100.00
55271;BME280;41132;47.162;9.470;2023-04-09T05:22:23;97019.13;;;5.89;100.00
55271;BME280;41132;47.162;9.470;2023-04-09T05:24:48;97027.50;;;6.05;100.00
55271;BME280;41132;47.162;9.470;2023-04-09T05:27:14;97005.38;;;5.87;100.00
55271;BME280;41132;47.162;9.470;2023-04-09T05:29:39;97023.72;;;6.10;100.00
55271;BME280;41132;47.162;9.470;2023-04-09T05:32:05;97020.28;;;6.09;100.00
55271;BME280;41132;47.162;9.470;2023-04-09T05:34:31;97022.28;;;6.05;100.00
55271;BME280;41132;47.162;9.470;2023-04-09T05:36:56;97026.78;;;6.03;100.00
55271;BME280;41132;47.162;9.470;2023-04-09T05:39:21;97022.56;;;6.14;100.00
55271;BME280;41132;47.162;9.470;2023-04-09T05:41:47;97010.22;;;6.04;100.00
55271;BME280;41132;47.162;9.470;2023-04-09T05:44:12;97030.75;;;6.20;100.00
55271;BME280;41132;47.162;9.470;2023-04-09T05:46:38;97027.75;;;6.14;100.00
55271;BME280;41132;47.162;9.470;2023-04-09T05:49:03;97015.41;;;6.04;100.00
55271;BME280;41132;47.162;9.470;2023-04-09T05:51:29;97029.88;;;6.20;100.00
55271;BME280;41132;47.162;9.470;2023-04-09T05:53:54;97030.13;;;6.17;100.00
55271;BME280;41132;47.162;9.470;2023-04-09T05:56:19;97023.38;;;6.14;100.00
55271;BME280;41132;47.162;9.470;2023-04-09T05:58:48;97022.31;;;6.28;100.00
55271;BME280;41132;47.162;9.470;2023-04-09T06:01:13;97029.56;;;6.36;100.00
55271;BME280;41132;47.162;9.470;2023-04-09T06:03:39;97029.91;;;6.31;100.00
55271;BME280;41132;47.162;9.470;2023-04-09T06:06:05;97036.72;;;6.45;100.00
55271;BME280;41132;47.162;9.470;2023-04-09T06:08:31;97036.59;;;6.69;100.00
55271;BME280;41132;47.162;9.470;2023-04-09T06:10:57;97039.31;;;6.79;100.00
55271;BME280;41132;47.162;9.470;2023-04-09T06:13:23;97038.59;;;6.88;100.00
55271;BME280;41132;47.162;9.470;2023-04-09T06:15:48;97038.00;;;6.96;100.00
55271;BME280;41132;47.162;9.470;2023-04-09T06:18:13;97041.09;;;7.01;100.00
55271;BME280;41132;47.162;9.470;2023-04-09T06:20:39;97033.50;;;7.09;100.00
55271;BME280;41132;47.162;9.470;2023-04-09T06:23:05;97026.38;;;7.11;100.00
55271;BME280;41132;47.162;9.470;2023-04-09T06:25:31;97043.66;;;7.35;100.00
55271;BME280;41132;47.162;9.470;2023-04-09T06:27:56;97046.63;;;7.30;100.00
55271;BME280;41132;47.162;9.470;2023-04-09T06:30:21;97045.44;;;7.23;100.00
55271;BME280;41132;47.162;9.470;2023-04-09T06:32:47;97047.63;;;6.95;100.00
55271;BME280;41132;47.162;9.470;2023-04-09T06:35:14;97042.88;;;6.89;100.00
55271;BME280;41132;47.162;9.470;2023-04-09T06:37:39;97039.91;;;6.82;100.00
55271;BME280;41132;47.162;9.470;2023-04-09T06:40:06;97046.78;;;6.95;100.00
55271;BME280;41132;47.162;9.470;2023-04-09T06:42:31;97047.13;;;6.79;100.00
55271;BME280;41132;47.162;9.470;2023-04-09T06:44:57;97039.66;;;6.97;100.00
55271;BME280;41132;47.162;9.470;2023-04-09T06:47:22;97053.41;;;7.21;100.00
55271;BME280;41132;47.162;9.470;2023-04-09T06:49:47;97044.66;;;7.11;100.00
55271;BME280;41132;47.162;9.470;2023-04-09T06:52:13;97048.44;;;7.18;100.00
55271;BME280;41132;47.162;9.470;2023-04-09T06:54:38;97059.72;;;7.07;100.00
55271;BME280;41132;47.162;9.470;2023-04-09T06:57:05;97060.31;;;7.11;100.00
55271;BME280;41132;47.162;9.470;2023-04-09T06:59:31;97059.34;;;7.01;100.00
55271;BME280;41132;47.162;9.470;2023-04-09T07:01:58;97060.88;;;7.15;100.00
55271;BME280;41132;47.162;9.470;2023-04-09T07:04:23;97058.28;;;7.03;100.00
55271;BME280;41132;47.162;9.470;2023-04-09T07:06:49;97061.13;;;7.23;100.00
55271;BME280;41132;47.162;9.470;2023-04-09T07:09:16;97061.94;;;7.35;100.00
55271;BME280;41132;47.162;9.470;2023-04-09T07:11:42;97055.81;;;7.57;100.00
55271;BME280;41132;47.162;9.470;2023-04-09T07:14:08;97050.81;;;7.97;100.00
55271;BME280;41132;47.162;9.470;2023-04-09T07:16:33;97051.84;;;8.27;100.00
55271;BME280;41132;47.162;9.470;2023-04-09T07:18:58;97039.41;;;8.61;100.00
55271;BME280;41132;47.162;9.470;2023-04-09T07:21:24;97021.72;;;8.53;100.00
55271;BME280;41132;47.162;9.470;2023-04-09T07:23:50;97043.13;;;8.99;100.00
55271;BME280;41132;47.162;9.470;2023-04-09T07:26:16;97045.91;;;9.48;100.00
55271;BME280;41132;47.162;9.470;2023-04-09T07:28:41;97038.72;;;9.59;100.00
55271;BME280;41132;47.162;9.470;2023-04-09T07:31:06;97047.09;;;9.34;100.00
55271;BME280;41132;47.162;9.470;2023-04-09T07:33:32;97053.34;;;9.43;100.00
55271;BME280;41132;47.162;9.470;2023-04-09T07:35:57;97036.94;;;9.50;100.00
55271;BME280;41132;47.162;9.470;2023-04-09T07:38:23;97054.97;;;9.34;100.00
55271;BME280;41132;47.162;9.470;2023-04-09T07:40:48;97047.94;;;9.44;100.00
55271;BME280;41132;47.162;9.470;2023-04-09T07:43:13;97054.16;;;9.53;100.00
55271;BME280;41132;47.162;9.470;2023-04-09T07:45:39;97043.00;;;9.60;100.00
55271;BME280;41132;47.162;9.470;2023-04-09T07:48:05;97053.09;;;9.65;100.00
55271;BME280;41132;47.162;9.470;2023-04-09T07:50:32;97040.53;;;9.49;100.00
55271;BME280;41132;47.162;9.470;2023-04-09T07:52:58;97058.22;;;9.86;100.00
55271;BME280;41132;47.162;9.470;2023-04-09T07:55:23;97032.78;;;9.67;100.00
55271;BME280;41132;47.162;9.470;2023-04-09T07:57:48;97052.56;;;9.91;100.00
55271;BME280;41132;47.162;9.470;2023-04-09T08:00:16;97055.16;;;9.71;100.00
55271;BME280;41132;47.162;9.470;2023-04-09T08:02:42;97039.84;;;9.47;100.00
55271;BME280;41132;47.162;9.470;2023-04-09T08:05:08;97027.28;;;10.29;100.00
55271;BME280;41132;47.162;9.470;2023-04-09T08:07:33;97036.53;;;10.33;100.00
55271;BME280;41132;47.162;9.470;2023-04-09T08:09:58;97034.22;;;12.14;94.60
55271;BME280;41132;47.162;9.470;2023-04-09T08:12:24;97043.91;;;13.60;86.02
55271;BME280;41132;47.162;9.470;2023-04-09T08:14:49;97042.31;;;14.66;74.87
55271;BME280;41132;47.162;9.470;2023-04-09T08:17:15;97029.31;;;14.56;71.92
55271;BME280;41132;47.162;9.470;2023-04-09T08:19:40;97029.25;;;16.52;66.77
55271;BME280;41132;47.162;9.470;2023-04-09T08:22:05;97030.38;;;19.52;55.09
55271;BME280;41132;47.162;9.470;2023-04-09T08:24:31;97029.38;;;18.27;54.80
55271;BME280;41132;47.162;9.470;2023-04-09T08:26:56;97036.78;;;18.31;51.61
55271;BME280;41132;47.162;9.470;2023-04-09T08:29:22;97037.16;;;17.49;53.28
55271;BME280;41132;47.162;9.470;2023-04-09T08:31:47;97028.25;;;17.93;51.83
55271;BME280;41132;47.162;9.470;2023-04-09T08:34:12;97034.16;;;16.93;55.46
55271;BME280;41132;47.162;9.470;2023-04-09T08:36:40;97041.09;;;17.74;54.67
55271;BME280;41132;47.162;9.470;2023-04-09T08:46:51;97030.59;;;14.76;65.56
55271;BME280;41132;47.162;9.470;2023-04-09T08:52:05;97037.28;;;14.95;64.84
55271;BME280;41132;47.162;9.470;2023-04-09T08:54:31;97041.13;;;15.32;63.96
55271;BME280;41132;47.162;9.470;2023-04-09T09:12:33;97013.59;;;24.01;38.25
55271;BME280;41132;47.162;9.470;2023-04-09T09:14:59;97027.25;;;24.76;36.50
55271;BME280;41132;47.162;9.470;2023-04-09T09:17:25;97014.50;;;24.95;36.21
55271;BME280;41132;47.162;9.470;2023-04-09T09:19:50;97013.63;;;25.54;33.99
55271;BME280;41132;47.162;9.470;2023-04-09T09:22:16;97011.06;;;25.88;33.61
55271;BME280;41132;47.162;9.470;2023-04-09T09:27:36;97006.22;;;27.03;30.40
55271;BME280;41132;47.162;9.470;2023-04-09T09:30:05;97019.94;;;27.01;28.60
55271;BME280;41132;47.162;9.470;2023-04-09T09:40:57;97008.03;;;28.07;31.19
55271;BME280;41132;47.162;9.470;2023-04-09T11:03:28;96955.75;;;24.05;34.00
55271;BME280;41132;47.162;9.470;2023-04-09T11:26:36;96952.72;;;16.19;48.05
55271;BME280;41132;47.162;9.470;2023-04-09T11:29:07;96956.47;;;15.63;50.34
55271;BME280;41132;47.162;9.470;2023-04-09T11:31:33;96957.03;;;15.51;50.18
55271;BME280;41132;47.162;9.470;2023-04-09T11:33:59;96962.31;;;15.82;48.48
55271;BME280;41132;47.162;9.470;2023-04-09T11:36:25;96964.81;;;15.52;51.91
55271;BME280;41132;47.162;9.470;2023-04-09T11:38:51;96954.72;;;15.24;50.37
55271;BME280;41132;47.162;9.470;2023-04-09T11:41:32;96971.38;;;15.33;49.49
55271;BME280;41132;47.162;9.470;2023-04-09T11:43:57;96961.44;;;15.04;51.44
55271;BME280;41132;47.162;9.470;2023-04-09T11:46:23;96968.44;;;14.89;51.72
55271;BME280;41132;47.162;9.470;2023-04-09T11:48:51;96956.81;;;15.06;51.48
55271;BME280;41132;47.162;9.470;2023-04-09T11:51:17;96955.00;;;14.67;51.20
55271;BME280;41132;47.162;9.470;2023-04-09T11:53:43;96957.00;;;14.40;53.98
55271;BME280;41132;47.162;9.470;2023-04-09T11:56:09;96958.97;;;14.63;55.07
55271;BME280;41132;47.162;9.470;2023-04-09T12:15:20;96960.06;;;14.77;50.81
55271;BME280;41132;47.162;9.470;2023-04-09T12:17:52;96949.06;;;14.57;51.97
55271;BME280;41132;47.162;9.470;2023-04-09T12:22:56;96953.19;;;14.43;53.77
55271;BME280;41132;47.162;9.470;2023-04-09T12:25:22;96950.75;;;14.17;53.51
55271;BME280;41132;47.162;9.470;2023-04-09T12:27:47;96953.03;;;14.28;53.21
55271;BME280;41132;47.162;9.470;2023-04-09T12:30:13;96954.91;;;14.11;53.90
55271;BME280;41132;47.162;9.470;2023-04-09T12:32:38;96952.59;;;14.08;52.84
55271;BME280;41132;47.162;9.470;2023-04-09T12:35:04;96955.91;;;14.02;51.52
55271;BME280;41132;47.162;9.470;2023-04-09T12:37:29;96957.19;;;14.31;53.89
55271;BME280;41132;47.162;9.470;2023-04-09T12:39:55;96955.41;;;13.98;52.70
55271;BME280;41132;47.162;9.470;2023-04-09T12:42:20;96962.50;;;13.65;54.92
55271;BME280;41132;47.162;9.470;2023-04-09T12:44:46;96962.00;;;13.70;53.95
55271;BME280;41132;47.162;9.470;2023-04-09T12:47:11;96962.00;;;13.86;53.06
55271;BME280;41132;47.162;9.470;2023-04-09T12:49:37;96952.59;;;14.00;52.33
55271;BME280;41132;47.162;9.470;2023-04-09T12:52:03;96959.34;;;13.78;52.89
55271;BME280;41132;47.162;9.470;2023-04-09T12:54:28;96957.53;;;13.62;51.83
55271;BME280;41132;47.162;9.470;2023-04-09T12:56:53;96953.09;;;13.54;52.21
55271;BME280;41132;47.162;9.470;2023-04-09T12:59:19;96916.75;;;13.15;54.60
55271;BME280;41132;47.162;9.470;2023-04-09T13:01:44;96941.94;;;13.18;55.43
55271;BME280;41132;47.162;9.470;2023-04-09T13:04:10;96944.41;;;13.11;53.32
55271;BME280;41132;47.162;9.470;2023-04-09T13:06:36;96951.78;;;13.00;56.40
55271;BME280;41132;47.162;9.470;2023-04-09T13:09:01;96944.78;;;12.74;56.21
55271;BME280;41132;47.162;9.470;2023-04-09T13:11:26;96950.50;;;12.69;57.18
55271;BME280;41132;47.162;9.470;2023-04-09T13:13:52;96953.97;;;12.70;54.17
55271;BME280;41132;47.162;9.470;2023-04-09T13:24:03;96924.00;;;12.37;54.98
55271;BME280;41132;47.162;9.470;2023-04-09T13:26:29;96915.22;;;12.54;53.95
55271;BME280;41132;47.162;9.470;2023-04-09T13:28:55;96933.09;;;12.85;53.61
55271;BME280;41132;47.162;9.470;2023-04-09T13:31:21;96920.13;;;12.83;50.41
55271;BME280;41132;47.162;9.470;2023-04-09T13:41:32;96911.41;;;12.91;56.85
55271;BME280;41132;47.162;9.470;2023-04-09T13:43:58;96908.47;;;13.02;57.12
55271;BME280;41132;47.162;9.470;2023-04-09T13:46:24;96901.53;;;12.93;53.07
55271;BME280;41132;47.162;9.470;2023-04-09T13:48:49;96899.53;;;12.87;52.63
55271;BME280;41132;47.162;9.470;2023-04-09T13:51:15;96901.69;;;12.91;54.88
55271;BME280;41132;47.162;9.470;2023-04-09T13:53:40;96894.59;;;12.92;55.70
55271;BME280;41132;47.162;9.470;2023-04-09T13:56:06;96893.31;;;12.96;54.56
55271;BME280;41132;47.162;9.470;2023-04-09T13:58:31;96906.00;;;12.92;55.37
55271;BME280;41132;47.162;9.470;2023-04-09T14:00:56;96906.50;;;13.04;54.56
55271;BME280;41132;47.162;9.470;2023-04-09T14:03:22;96890.38;;;12.99;52.63
55271;BME280;41132;47.162;9.470;2023-04-09T14:05:47;96900.56;;;13.02;53.62
55271;BME280;41132;47.162;9.470;2023-04-09T14:08:14;96878.16;;;12.98;52.31
55271;BME280;41132;47.162;9.470;2023-04-09T14:10:40;96885.25;;;12.98;53.43
55271;BME280;41132;47.162;9.470;2023-04-09T14:13:05;96895.25;;;12.94;53.07
55271;BME280;41132;47.162;9.470;2023-04-09T14:15:34;96884.59;;;13.04;52.51
55271;BME280;41132;47.162;9.470;2023-04-09T14:18:00;96883.25;;;12.83;52.10
55271;BME280;41132;47.162;9.470;2023-04-09T14:20:25;96886.03;;;12.82;56.02
55271;BME280;41132;47.162;9.470;2023-04-09T14:22:50;96862.66;;;12.87;52.71
55271;BME280;41132;47.162;9.470;2023-04-09T14:25:16;96876.34;;;12.90;51.84
55271;BME280;41132;47.162;9.470;2023-04-09T14:27:41;96875.03;;;12.94;54.69
55271;BME280;41132;47.162;9.470;2023-04-09T14:30:08;96883.28;;;13.08;52.28
55271;BME280;41132;47.162;9.470;2023-04-09T14:32:34;96885.72;;;13.01;51.83
55271;BME280;41132;47.162;9.470;2023-04-09T14:34:59;96873.59;;;13.08;52.29
55271;BME280;41132;47.162;9.470;2023-04-09T14:37:24;96864.28;;;12.80;51.75
55271;BME280;41132;47.162;9.470;2023-04-09T14:39:50;96880.72;;;12.65;51.93
55271;BME280;41132;47.162;9.470;2023-04-09T14:42:15;96880.66;;;12.57;53.91
55271;BME280;41132;47.162;9.470;2023-04-09T14:44:41;96884.81;;;12.25;54.52
55271;BME280;41132;47.162;9.470;2023-04-09T14:47:06;96869.94;;;12.16;56.96
55271;BME280;41132;47.162;9.470;2023-04-09T14:49:32;96878.03;;;12.23;54.90
55271;BME280;41132;47.162;9.470;2023-04-09T14:51:57;96877.56;;;12.27;55.79
55271;BME280;41132;47.162;9.470;2023-04-09T14:54:23;96880.25;;;12.36;50.47
55271;BME280;41132;47.162;9.470;2023-04-09T14:56:48;96856.66;;;12.18;52.96
55271;BME280;41132;47.162;9.470;2023-04-09T14:59:14;96871.91;;;12.48;53.45
55271;BME280;41132;47.162;9.470;2023-04-09T15:01:39;96864.81;;;12.49;53.89
55271;BME280;41132;47.162;9.470;2023-04-09T15:04:05;96863.47;;;12.37;53.52
55271;BME280;41132;47.162;9.470;2023-04-09T15:06:30;96880.91;;;12.72;52.72
55271;BME280;41132;47.162;9.470;2023-04-09T15:08:56;96874.25;;;12.60;52.51
55271;BME280;41132;47.162;9.470;2023-04-09T15:11:21;96876.41;;;12.56;53.26
55271;BME280;41132;47.162;9.470;2023-04-09T15:13:47;96875.34;;;12.49;52.82
55271;BME280;41132;47.162;9.470;2023-04-09T15:16:20;96873.06;;;12.46;52.01
55271;BME280;41132;47.162;9.470;2023-04-09T15:18:46;96870.16;;;12.23;53.42
55271;BME280;41132;47.162;9.470;2023-04-09T15:21:13;96870.00;;;12.24;52.55
55271;BME280;41132;47.162;9.470;2023-04-09T15:23:38;96875.22;;;12.16;51.80
55271;BME280;41132;47.162;9.470;2023-04-09T15:26:04;96862.25;;;11.97;51.76
55271;BME280;41132;47.162;9.470;2023-04-09T15:28:30;96876.19;;;11.89;54.13
55271;BME280;41132;47.162;9.470;2023-04-09T15:30:55;96875.28;;;11.98;54.79
55271;BME280;41132;47.162;9.470;2023-04-09T15:33:21;96866.50;;;12.16;52.81
55271;BME280;41132;47.162;9.470;2023-04-09T15:35:46;96862.72;;;12.18;51.57
55271;BME280;41132;47.162;9.470;2023-04-09T15:38:11;96859.78;;;12.21;51.29
55271;BME280;41132;47.162;9.470;2023-04-09T15:40:39;96848.16;;;11.98;52.73
55271;BME280;41132;47.162;9.470;2023-04-09T15:43:04;96852.69;;;11.87;52.46
55271;BME280;41132;47.162;9.470;2023-04-09T15:45:30;96831.47;;;11.63;53.88
55271;BME280;41132;47.162;9.470;2023-04-09T15:47:55;96876.06;;;11.90;54.29
55271;BME280;41132;47.162;9.470;2023-04-09T15:50:21;96858.47;;;11.91;52.94
55271;BME280;41132;47.162;9.470;2023-04-09T15:52:46;96865.31;;;12.10;52.49
55271;BME280;41132;47.162;9.470;2023-04-09T15:55:12;96850.09;;;11.96;51.75
55271;BME280;41132;47.162;9.470;2023-04-09T15:57:38;96853.97;;;12.09;51.38
55271;BME280;41132;47.162;9.470;2023-04-09T16:00:04;96861.91;;;12.18;52.16
55271;BME280;41132;47.162;9.470;2023-04-09T16:02:32;96862.22;;;12.15;52.13
55271;BME280;41132;47.162;9.470;2023-04-09T16:04:58;96859.78;;;12.21;51.84